Terminal Aerodrome Forecast
Issued by NWS

Home | Current Version | Previous Version | Text Only | Print | Product List | Glossary On
Versions: 1 2 3 4 5 6 7 8 9 10 11 12 13 14 15 16 17 18 19 20 21 22 23 24
000
FTUS43 KGRR 110540
TAFLAN
TAF
KLAN 110540Z 1106/1206 31008KT P6SM VCSH SCT025 OVC040
     FM111500 18008KT 4SM -SN OVC018
     FM111600 18009KT 1 1/2SM -SN BR OVC008
     FM111800 18010KT P6SM VCSH OVC012
     FM112200 17010KT 3/4SM -SN BR OVC005
     FM120500 32012G22KT 4SM -SHSN OVC015=

USA.gov is the U.S. government's official web portal to all federal, state and local government web resources and services.